createdAt,value
2018-10-07T00:00:06.483Z,14.70
2018-10-07T00:02:34.958Z,14.70
2018-10-07T00:05:03.481Z,14.60
2018-10-07T00:07:31.987Z,14.40
2018-10-07T00:10:00.468Z,14.40
2018-10-07T00:12:28.944Z,14.40
2018-10-07T00:14:57.392Z,14.30
2018-10-07T00:17:25.836Z,14.20
2018-10-07T00:19:54.287Z,14.20
2018-10-07T00:22:22.786Z,14.30
2018-10-07T00:24:51.229Z,14.10
2018-10-07T00:27:19.757Z,13.80
2018-10-07T00:29:48.185Z,13.80
2018-10-07T00:32:17.108Z,13.80
2018-10-07T00:34:46.912Z,13.80
2018-10-07T00:37:15.400Z,13.80
2018-10-07T00:39:44.227Z,13.60
2018-10-07T00:42:12.907Z,13.50
2018-10-07T00:44:41.333Z,13.50
2018-10-07T00:47:09.885Z,13.50
2018-10-07T00:49:38.364Z,13.30
2018-10-07T00:52:06.874Z,13.40
2018-10-07T00:54:35.313Z,13.40
2018-10-07T00:57:03.824Z,13.30
2018-10-07T00:59:32.252Z,13.40
2018-10-07T01:02:00.722Z,13.40
2018-10-07T01:04:29.169Z,13.40
2018-10-07T01:06:57.599Z,13.50
2018-10-07T01:09:26.033Z,13.40
2018-10-07T01:11:54.567Z,13.20
2018-10-07T01:14:23.096Z,13.10
2018-10-07T01:16:51.609Z,13.20
2018-10-07T01:19:20.027Z,13.20
2018-10-07T01:21:49.492Z,13.30
2018-10-07T01:24:18.169Z,13.30
2018-10-07T01:26:46.648Z,13.30
2018-10-07T01:29:15.086Z,13.10
2018-10-07T01:31:43.531Z,13.20
2018-10-07T01:34:11.973Z,13.10
2018-10-07T01:36:40.419Z,13.10
2018-10-07T01:39:11.789Z,13.10
2018-10-07T01:41:40.242Z,12.90
2018-10-07T01:44:08.805Z,12.90
2018-10-07T01:46:37.335Z,12.80
2018-10-07T01:49:05.863Z,13.00
2018-10-07T01:51:34.352Z,12.90
2018-10-07T01:54:02.799Z,12.90
2018-10-07T01:56:31.325Z,12.80
2018-10-07T01:58:59.754Z,12.80
2018-10-07T02:01:28.256Z,12.70
2018-10-07T02:03:56.719Z,12.60
2018-10-07T02:06:25.263Z,12.70
2018-10-07T02:08:53.718Z,12.60
2018-10-07T02:11:22.149Z,12.70
2018-10-07T02:13:50.822Z,12.70
2018-10-07T02:16:19.528Z,12.50
2018-10-07T02:18:47.980Z,12.60
2018-10-07T02:21:16.406Z,12.70
2018-10-07T02:23:44.904Z,12.50
2018-10-07T02:26:13.382Z,12.50
2018-10-07T02:28:41.869Z,12.50
2018-10-07T02:31:10.353Z,12.50
2018-10-07T02:33:38.874Z,12.50
2018-10-07T02:36:07.558Z,12.40
2018-10-07T02:38:36.691Z,12.40
2018-10-07T02:41:05.408Z,12.40
2018-10-07T02:43:34.071Z,12.40
2018-10-07T02:46:02.861Z,12.40
2018-10-07T02:48:31.546Z,12.40
2018-10-07T02:51:00.373Z,12.40
2018-10-07T02:53:29.175Z,12.40
2018-10-07T02:55:57.864Z,12.30
2018-10-07T02:58:27.238Z,12.20
2018-10-07T03:00:55.921Z,12.30
2018-10-07T03:03:24.536Z,12.30
2018-10-07T03:05:53.100Z,12.50
2018-10-07T03:08:21.625Z,12.50
2018-10-07T03:10:50.268Z,12.50
2018-10-07T03:13:18.829Z,12.40
2018-10-07T03:15:47.313Z,12.30
2018-10-07T03:18:15.809Z,12.30
2018-10-07T03:20:44.459Z,12.20
2018-10-07T03:23:13.011Z,12.30
2018-10-07T03:25:41.639Z,12.20
2018-10-07T03:28:10.277Z,12.20
2018-10-07T03:30:38.697Z,12.20
2018-10-07T03:33:07.370Z,12.10
2018-10-07T03:35:36.005Z,12.10
2018-10-07T03:38:04.629Z,12.30
2018-10-07T03:40:33.205Z,12.30
2018-10-07T03:43:01.707Z,12.30
2018-10-07T03:45:30.212Z,12.20
2018-10-07T03:47:58.814Z,12.10
2018-10-07T03:50:27.496Z,12.10
2018-10-07T03:52:56.102Z,12.20
2018-10-07T03:55:24.766Z,12.10
2018-10-07T03:57:53.227Z,12.10
2018-10-07T04:00:21.681Z,12.00
2018-10-07T04:02:50.174Z,12.00
2018-10-07T04:05:18.665Z,12.10
2018-10-07T04:07:47.112Z,12.10
2018-10-07T04:10:15.583Z,12.20
2018-10-07T04:12:44.081Z,12.20
2018-10-07T04:15:12.579Z,12.20
2018-10-07T04:17:40.992Z,12.20
2018-10-07T04:20:09.437Z,12.20
2018-10-07T04:22:37.869Z,12.10
2018-10-07T04:25:06.545Z,12.10
2018-10-07T04:27:35.044Z,12.10
2018-10-07T04:30:03.490Z,12.10
2018-10-07T04:32:31.963Z,12.10
2018-10-07T04:35:00.417Z,12.00
2018-10-07T04:37:28.865Z,12.00
2018-10-07T04:39:57.333Z,12.00
2018-10-07T04:42:25.770Z,12.10
2018-10-07T04:44:54.213Z,12.00
2018-10-07T04:47:22.674Z,12.10
2018-10-07T04:49:51.093Z,12.10
2018-10-07T04:52:19.607Z,12.00
2018-10-07T04:54:48.094Z,12.10
2018-10-07T04:57:16.810Z,12.00
2018-10-07T04:59:45.228Z,12.20
2018-10-07T05:02:13.777Z,12.10
2018-10-07T05:04:42.291Z,12.10
2018-10-07T05:08:40.209Z,12.00
2018-10-07T05:11:08.762Z,12.10
2018-10-07T05:13:49.275Z,12.00
2018-10-07T05:16:23.095Z,12.10
2018-10-07T05:18:51.589Z,11.90
2018-10-07T05:21:20.067Z,12.00
2018-10-07T05:23:48.534Z,12.10
2018-10-07T05:26:17.011Z,12.10
2018-10-07T05:28:45.480Z,11.90
2018-10-07T05:31:13.935Z,12.10
2018-10-07T05:33:42.359Z,12.10
2018-10-07T05:36:10.843Z,12.20
2018-10-07T05:38:39.280Z,12.10
2018-10-07T05:41:07.796Z,12.10
2018-10-07T05:43:36.312Z,12.20
2018-10-07T05:46:04.832Z,12.20
2018-10-07T05:48:33.309Z,12.20
2018-10-07T05:51:01.813Z,12.00
2018-10-07T05:53:30.307Z,12.00
2018-10-07T05:55:58.743Z,12.00
2018-10-07T05:58:27.739Z,12.00
2018-10-07T06:00:59.565Z,11.90
2018-10-07T06:04:41.339Z,11.80
2018-10-07T06:07:10.037Z,11.80
2018-10-07T06:09:39.023Z,11.80
2018-10-07T06:12:07.606Z,11.70
2018-10-07T06:14:47.398Z,11.70
2018-10-07T06:17:15.898Z,11.70
2018-10-07T06:19:44.540Z,11.60
2018-10-07T06:22:13.087Z,11.60
2018-10-07T06:24:41.617Z,11.60
2018-10-07T06:27:10.104Z,11.70
2018-10-07T06:29:38.657Z,11.80
2018-10-07T06:32:08.048Z,11.70
2018-10-07T06:34:36.534Z,11.70
2018-10-07T06:37:05.044Z,11.70
2018-10-07T06:39:33.533Z,11.80
2018-10-07T06:42:02.017Z,11.80
2018-10-07T06:44:30.500Z,12.00
2018-10-07T06:46:59.041Z,11.90
2018-10-07T06:49:27.580Z,11.90
2018-10-07T06:51:56.126Z,11.80
2018-10-07T06:54:24.618Z,11.80
2018-10-07T06:56:53.232Z,11.80
2018-10-07T06:59:21.785Z,11.80
2018-10-07T07:01:50.333Z,12.00
2018-10-07T07:04:18.977Z,12.00
2018-10-07T07:06:47.453Z,11.90
2018-10-07T07:09:15.989Z,12.10
2018-10-07T07:11:44.481Z,11.90
2018-10-07T07:14:12.966Z,11.90
2018-10-07T07:16:41.528Z,11.90
2018-10-07T07:19:11.394Z,12.00
2018-10-07T07:21:39.878Z,12.00
2018-10-07T07:24:08.413Z,12.10
2018-10-07T07:26:36.889Z,12.20
2018-10-07T07:29:05.417Z,12.30
2018-10-07T07:31:34.068Z,12.40
2018-10-07T07:34:02.470Z,12.50
2018-10-07T07:36:30.974Z,12.60
2018-10-07T07:38:59.754Z,12.60
2018-10-07T07:41:28.232Z,12.70
2018-10-07T07:43:57.077Z,12.70
2018-10-07T07:46:25.529Z,12.80
2018-10-07T07:48:54.025Z,12.80
2018-10-07T07:51:22.557Z,12.70
2018-10-07T07:53:51.085Z,12.80
2018-10-07T07:56:19.679Z,12.90
2018-10-07T07:58:48.178Z,13.00
2018-10-07T08:01:16.694Z,13.00
2018-10-07T08:03:45.444Z,13.10
2018-10-07T08:06:13.911Z,13.60
2018-10-07T08:08:42.388Z,13.30
2018-10-07T08:11:10.865Z,13.60
2018-10-07T08:13:39.396Z,13.80
2018-10-07T08:16:08.042Z,13.90
2018-10-07T08:18:36.565Z,13.80
2018-10-07T08:21:05.777Z,13.70
2018-10-07T08:23:34.379Z,13.60
2018-10-07T08:26:02.815Z,13.70
2018-10-07T08:28:31.323Z,13.80
2018-10-07T08:30:59.837Z,14.00
2018-10-07T08:33:28.321Z,14.10
2018-10-07T08:35:56.776Z,14.10
2018-10-07T08:38:25.298Z,14.00
2018-10-07T08:40:53.806Z,14.10
2018-10-07T08:43:22.283Z,14.00
2018-10-07T08:45:51.377Z,14.00
2018-10-07T08:48:19.899Z,14.40
2018-10-07T08:50:48.385Z,14.90
2018-10-07T08:53:16.893Z,15.00
2018-10-07T08:55:45.362Z,15.00
2018-10-07T08:58:13.950Z,14.70
2018-10-07T09:00:43.115Z,14.40
2018-10-07T09:03:11.605Z,14.60
2018-10-07T09:05:40.090Z,14.70
2018-10-07T09:08:08.605Z,14.40
2018-10-07T09:10:37.115Z,13.90
2018-10-07T09:13:05.666Z,13.70
2018-10-07T09:15:34.786Z,13.60
2018-10-07T09:18:03.284Z,13.70
2018-10-07T09:20:31.788Z,13.40
2018-10-07T09:23:00.272Z,13.00
2018-10-07T09:25:28.701Z,13.00
2018-10-07T09:27:58.513Z,13.30
2018-10-07T09:30:27.138Z,13.30
2018-10-07T09:32:55.910Z,13.50
2018-10-07T09:35:24.287Z,13.50
2018-10-07T09:37:52.754Z,13.50
2018-10-07T09:40:21.198Z,13.50
2018-10-07T09:42:49.660Z,13.50
2018-10-07T09:45:18.170Z,13.20
2018-10-07T09:47:46.786Z,13.00
2018-10-07T09:50:16.292Z,13.00
2018-10-07T09:52:47.710Z,13.10
2018-10-07T09:55:16.240Z,13.20
2018-10-07T09:57:44.904Z,13.40
2018-10-07T10:00:13.471Z,13.90
2018-10-07T10:02:42.023Z,14.60
2018-10-07T10:05:10.565Z,14.60
2018-10-07T10:07:39.146Z,14.40
2018-10-07T10:10:07.652Z,14.50
2018-10-07T10:12:36.179Z,14.10
2018-10-07T10:15:04.736Z,14.30
2018-10-07T10:17:34.450Z,14.20
2018-10-07T10:20:07.171Z,14.40
2018-10-07T10:23:52.294Z,14.70
2018-10-07T10:28:35.903Z,14.70
2018-10-07T10:31:15.396Z,14.70
2018-10-07T10:34:10.145Z,15.00
2018-10-07T10:36:45.455Z,15.30
2018-10-07T10:40:21.569Z,15.40
2018-10-07T10:42:55.672Z,15.40
2018-10-07T10:45:32.976Z,15.40
2018-10-07T10:48:09.897Z,15.60
2018-10-07T10:51:48.042Z,15.60
2018-10-07T10:54:22.452Z,15.70
2018-10-07T10:56:59.307Z,15.80
2018-10-07T10:59:54.300Z,15.70
2018-10-07T11:02:30.944Z,15.70
2018-10-07T11:05:09.636Z,16.00
2018-10-07T11:09:19.468Z,16.30
2018-10-07T11:11:55.341Z,16.70
2018-10-07T11:14:34.998Z,17.10
2018-10-07T11:17:19.373Z,17.20
2018-10-07T11:19:53.845Z,16.80
2018-10-07T11:23:38.362Z,16.60
2018-10-07T11:26:16.237Z,16.40
2018-10-07T11:28:57.550Z,16.20
2018-10-07T11:31:50.974Z,16.60
2018-10-07T11:34:39.780Z,16.90
2018-10-07T11:37:19.880Z,17.10
2018-10-07T11:39:59.680Z,17.60
2018-10-07T11:42:31.814Z,17.40
2018-10-07T11:45:15.043Z,17.90
2018-10-07T11:49:56.077Z,17.60
2018-10-07T11:52:37.996Z,18.00
2018-10-07T11:55:07.023Z,18.70
2018-10-07T11:57:35.536Z,18.70
2018-10-07T12:00:04.209Z,18.20
2018-10-07T12:02:32.731Z,17.90
2018-10-07T12:05:01.500Z,18.60
2018-10-07T12:07:31.625Z,18.30
2018-10-07T12:10:00.172Z,18.10
2018-10-07T12:12:28.865Z,18.10
2018-10-07T12:14:57.401Z,18.90
2018-10-07T12:17:25.896Z,18.20
2018-10-07T12:19:54.366Z,17.70
2018-10-07T12:22:23.219Z,18.50
2018-10-07T12:24:51.868Z,17.90
2018-10-07T12:27:20.405Z,17.60
2018-10-07T12:29:48.922Z,17.20
2018-10-07T12:32:17.413Z,18.10
2018-10-07T12:34:45.887Z,17.40
2018-10-07T12:37:14.450Z,17.30
2018-10-07T12:39:42.927Z,17.40
2018-10-07T12:42:11.589Z,17.40
2018-10-07T12:44:40.094Z,17.80
2018-10-07T12:47:08.626Z,16.80
2018-10-07T12:49:37.196Z,16.80
2018-10-07T12:52:05.777Z,17.70
2018-10-07T12:54:34.484Z,18.00
2018-10-07T12:57:02.983Z,17.50
2018-10-07T12:59:31.471Z,17.70
2018-10-07T13:01:59.942Z,17.70
2018-10-07T13:04:28.398Z,17.60
2018-10-07T13:06:56.969Z,17.50
2018-10-07T13:09:25.552Z,17.10
2018-10-07T13:11:54.057Z,16.80
2018-10-07T13:14:22.569Z,16.40
2018-10-07T13:16:51.156Z,16.90
2018-10-07T13:19:19.705Z,16.90
2018-10-07T13:21:48.302Z,16.80
2018-10-07T13:24:16.746Z,16.90
2018-10-07T13:26:45.250Z,16.90
2018-10-07T13:29:14.517Z,16.60
2018-10-07T13:31:43.005Z,16.40
2018-10-07T13:34:11.480Z,16.80
2018-10-07T13:36:40.080Z,16.70
2018-10-07T13:39:10.458Z,16.60
2018-10-07T13:41:39.226Z,16.40
2018-10-07T13:44:07.836Z,16.60
2018-10-07T13:46:36.380Z,16.60
2018-10-07T13:49:04.976Z,17.00
2018-10-07T13:51:33.498Z,17.10
2018-10-07T13:54:01.972Z,17.30
2018-10-07T14:03:16.969Z,17.20
2018-10-07T14:05:45.455Z,16.30
2018-10-07T14:08:13.918Z,16.10
2018-10-07T14:10:42.444Z,16.20
2018-10-07T14:13:10.896Z,16.80
2018-10-07T14:15:39.400Z,16.90
2018-10-07T14:18:07.911Z,17.00
2018-10-07T14:20:36.391Z,17.40
2018-10-07T14:23:04.919Z,17.20
2018-10-07T14:25:33.426Z,17.50
2018-10-07T14:28:01.893Z,17.60
2018-10-07T14:30:30.395Z,17.20
2018-10-07T14:32:58.896Z,16.90
2018-10-07T14:35:27.421Z,17.60
2018-10-07T14:37:57.294Z,18.10
2018-10-07T14:40:25.806Z,18.10
2018-10-07T14:42:54.308Z,17.80
2018-10-07T14:45:22.854Z,17.70
2018-10-07T14:47:51.344Z,18.30
2018-10-07T14:50:19.860Z,18.10
2018-10-07T14:52:48.382Z,17.80
2018-10-07T14:55:17.051Z,17.90
2018-10-07T14:57:45.468Z,17.60
2018-10-07T15:00:14.099Z,17.80
2018-10-07T15:02:42.591Z,17.40
2018-10-07T15:05:11.102Z,17.50
2018-10-07T15:07:39.662Z,17.60
2018-10-07T15:10:08.437Z,17.80
2018-10-07T15:12:37.072Z,17.70
2018-10-07T15:15:05.681Z,17.50
2018-10-07T15:17:34.391Z,17.40
2018-10-07T15:20:03.043Z,17.70
2018-10-07T15:22:31.607Z,17.70
2018-10-07T15:25:00.377Z,17.90
2018-10-07T15:27:28.936Z,17.90
2018-10-07T15:29:57.607Z,17.70
2018-10-07T15:32:27.558Z,17.60
2018-10-07T15:34:56.263Z,17.50
2018-10-07T15:37:24.740Z,16.90
2018-10-07T15:39:53.593Z,17.10
2018-10-07T15:42:22.730Z,17.10
2018-10-07T15:44:51.389Z,16.80
2018-10-07T15:47:20.195Z,16.60
2018-10-07T15:49:48.884Z,16.50
2018-10-07T15:52:18.583Z,16.70
2018-10-07T15:54:47.097Z,16.70
2018-10-07T15:57:15.740Z,16.70
2018-10-07T15:59:44.442Z,16.70
2018-10-07T16:02:13.104Z,16.70
2018-10-07T16:04:41.597Z,16.80
2018-10-07T16:07:10.137Z,16.80
2018-10-07T16:09:38.653Z,16.60
2018-10-07T16:12:07.555Z,16.40
2018-10-07T16:14:36.129Z,16.40
2018-10-07T16:17:04.740Z,16.30
2018-10-07T16:19:33.345Z,16.20
2018-10-07T16:22:02.148Z,16.20
2018-10-07T16:24:30.916Z,16.20
2018-10-07T16:26:59.613Z,16.00
2018-10-07T16:29:28.456Z,15.90
2018-10-07T16:31:56.968Z,15.90
2018-10-07T16:34:25.655Z,16.00
2018-10-07T16:36:54.261Z,16.00
2018-10-07T16:39:22.759Z,16.00
2018-10-07T16:41:51.463Z,15.60
2018-10-07T16:44:20.378Z,15.40
2018-10-07T16:46:48.993Z,15.50
2018-10-07T16:49:17.650Z,15.60
2018-10-07T16:51:46.465Z,15.60
2018-10-07T16:54:14.961Z,15.60
2018-10-07T16:56:43.696Z,15.70
2018-10-07T16:59:12.209Z,15.60
2018-10-07T17:01:40.818Z,15.60
2018-10-07T17:04:09.393Z,15.50
2018-10-07T17:06:37.951Z,15.40
2018-10-07T17:09:08.093Z,15.30
2018-10-07T17:11:36.738Z,15.20
2018-10-07T17:14:05.287Z,15.20
2018-10-07T17:16:33.922Z,15.20
2018-10-07T17:19:02.415Z,15.10
2018-10-07T17:21:31.063Z,15.10
2018-10-07T17:23:59.912Z,15.00
2018-10-07T17:26:28.396Z,15.00
2018-10-07T17:28:57.025Z,14.90
2018-10-07T17:31:25.702Z,14.80
2018-10-07T17:33:54.227Z,14.70
2018-10-07T17:36:23.500Z,14.70
2018-10-07T17:38:51.989Z,14.70
2018-10-07T17:41:20.657Z,14.60
2018-10-07T17:43:49.328Z,14.60
2018-10-07T17:46:17.944Z,14.50
2018-10-07T17:48:47.627Z,14.40
2018-10-07T17:51:16.232Z,14.40
2018-10-07T17:53:44.757Z,14.40
2018-10-07T17:56:14.369Z,14.40
2018-10-07T17:58:42.857Z,14.30
2018-10-07T18:01:11.330Z,14.20
2018-10-07T18:03:39.956Z,14.10
2018-10-07T18:06:08.432Z,14.00
2018-10-07T18:08:37.479Z,13.90
2018-10-07T18:11:06.128Z,13.90
2018-10-07T18:13:34.635Z,14.00
2018-10-07T18:16:03.121Z,13.90
2018-10-07T18:18:31.708Z,13.90
2018-10-07T18:21:00.243Z,14.00
2018-10-07T18:23:29.807Z,14.00
2018-10-07T18:25:58.356Z,13.80
2018-10-07T18:28:28.181Z,13.70
2018-10-07T18:30:56.882Z,13.60
2018-10-07T18:33:25.411Z,13.50
2018-10-07T18:35:53.988Z,13.50
2018-10-07T18:38:22.482Z,13.50
2018-10-07T18:40:50.971Z,13.50
2018-10-07T18:43:19.541Z,13.40
2018-10-07T18:45:48.949Z,13.30
2018-10-07T18:48:17.402Z,13.30
2018-10-07T18:50:46.049Z,13.30
2018-10-07T18:53:16.773Z,13.20
2018-10-07T18:55:45.371Z,13.10
2018-10-07T18:58:13.970Z,13.00
2018-10-07T19:00:42.681Z,13.00
2018-10-07T19:03:11.481Z,13.00
2018-10-07T19:05:40.140Z,13.00
2018-10-07T19:08:08.618Z,12.90
2018-10-07T19:10:37.102Z,12.90
2018-10-07T19:13:05.709Z,13.00
2018-10-07T19:15:34.192Z,13.00
2018-10-07T19:18:03.237Z,12.90
2018-10-07T19:20:31.879Z,12.80
2018-10-07T19:23:00.441Z,12.80
2018-10-07T19:25:28.964Z,12.80
2018-10-07T19:27:58.946Z,12.80
2018-10-07T19:30:27.640Z,12.70
2018-10-07T19:32:56.160Z,12.70
2018-10-07T19:35:24.701Z,12.70
2018-10-07T19:37:53.310Z,12.60
2018-10-07T19:40:21.777Z,12.50
2018-10-07T19:42:50.406Z,12.60
2018-10-07T19:45:19.250Z,12.70
2018-10-07T19:47:47.776Z,12.60
2018-10-07T19:50:16.690Z,12.60
2018-10-07T19:52:45.418Z,12.70
2018-10-07T19:55:14.036Z,12.70
2018-10-07T19:57:42.537Z,12.60
2018-10-07T20:00:11.194Z,12.50
2018-10-07T20:02:39.793Z,12.50
2018-10-07T20:05:08.477Z,12.50
2018-10-07T20:07:37.269Z,12.50
2018-10-07T20:10:06.088Z,12.40
2018-10-07T20:12:34.867Z,12.30
2018-10-07T20:15:03.443Z,12.30
2018-10-07T20:17:31.951Z,12.20
2018-10-07T20:20:00.465Z,12.10
2018-10-07T20:22:29.195Z,12.10
2018-10-07T20:24:57.761Z,12.10
2018-10-07T20:27:26.834Z,12.10
2018-10-07T20:29:55.324Z,12.00
2018-10-07T20:32:23.765Z,12.00
2018-10-07T20:34:52.317Z,12.00
2018-10-07T20:37:21.171Z,12.00
2018-10-07T20:39:49.679Z,12.00
2018-10-07T20:42:18.388Z,11.80
2018-10-07T20:44:46.873Z,11.80
2018-10-07T20:47:15.449Z,11.80
2018-10-07T20:49:43.957Z,11.80
2018-10-07T20:52:12.529Z,11.70
2018-10-07T20:54:40.973Z,11.70
2018-10-07T20:57:09.488Z,11.60
2018-10-07T20:59:39.116Z,11.60
2018-10-07T21:02:07.668Z,11.60
2018-10-07T21:04:37.633Z,11.60
2018-10-07T21:07:06.485Z,11.60
2018-10-07T21:09:35.627Z,11.60
2018-10-07T21:12:04.245Z,11.60
2018-10-07T21:14:32.800Z,11.70
2018-10-07T21:17:01.882Z,11.60
2018-10-07T21:19:30.641Z,11.50
2018-10-07T21:21:59.389Z,11.40
2018-10-07T21:24:27.901Z,11.40
2018-10-07T21:26:57.356Z,11.40
2018-10-07T21:29:27.230Z,11.40
2018-10-07T21:31:56.601Z,11.40
2018-10-07T21:34:25.478Z,11.30
2018-10-07T21:36:54.040Z,11.20
2018-10-07T21:39:22.567Z,11.20
2018-10-07T21:41:51.066Z,11.20
2018-10-07T21:44:19.545Z,11.10
2018-10-07T21:46:48.087Z,11.00
2018-10-07T21:49:16.545Z,11.00
2018-10-07T21:51:45.005Z,11.10
2018-10-07T21:54:13.497Z,11.10
2018-10-07T21:56:42.050Z,11.00
2018-10-07T21:59:10.561Z,10.90
2018-10-07T22:01:39.067Z,10.80
2018-10-07T22:04:07.659Z,10.90
2018-10-07T22:06:36.309Z,10.80
2018-10-07T22:09:07.262Z,10.80
2018-10-07T22:11:35.764Z,10.80
2018-10-07T22:14:04.317Z,10.70
2018-10-07T22:16:32.920Z,10.70
2018-10-07T22:19:01.417Z,10.60
2018-10-07T22:21:29.969Z,10.60
2018-10-07T22:23:58.542Z,10.50
2018-10-07T22:26:27.076Z,10.50
2018-10-07T22:28:55.566Z,10.60
2018-10-07T22:31:24.054Z,10.60
2018-10-07T22:33:52.558Z,10.60
2018-10-07T22:36:21.046Z,10.50
2018-10-07T22:38:49.573Z,10.50
2018-10-07T22:41:18.005Z,10.40
2018-10-07T22:43:46.488Z,10.50
2018-10-07T22:46:14.936Z,10.50
2018-10-07T22:48:43.454Z,10.50
2018-10-07T22:51:11.946Z,10.40
2018-10-07T22:53:40.436Z,10.40
2018-10-07T22:56:08.937Z,10.40
2018-10-07T22:58:37.397Z,10.30
2018-10-07T23:01:06.031Z,10.40
2018-10-07T23:03:34.623Z,10.30
2018-10-07T23:06:03.092Z,10.30
2018-10-07T23:08:31.653Z,10.40
2018-10-07T23:11:00.198Z,10.30
2018-10-07T23:13:28.689Z,10.30
2018-10-07T23:15:57.187Z,10.10
2018-10-07T23:18:25.677Z,10.20
2018-10-07T23:20:54.169Z,10.10
2018-10-07T23:23:22.625Z,10.10
2018-10-07T23:25:51.152Z,10.10
2018-10-07T23:28:19.602Z,10.10
2018-10-07T23:30:48.104Z,10.00
2018-10-07T23:33:16.584Z,9.90
2018-10-07T23:35:45.670Z,9.90
2018-10-07T23:38:14.156Z,10.00
2018-10-07T23:40:43.801Z,9.90
2018-10-07T23:43:12.317Z,9.90
2018-10-07T23:45:40.849Z,9.80
2018-10-07T23:48:09.298Z,9.80
2018-10-07T23:50:37.811Z,9.70
2018-10-07T23:53:06.400Z,9.70
2018-10-07T23:55:34.868Z,9.80
2018-10-07T23:58:03.288Z,9.90
